Time;durP1;ratioP1;P1;durP2;ratioP2;P2;SDS_P1;SDS_P2;PMS_P1;PMS_P2;Temp;Humidity;BMP_temperature;BMP_pressure;BME280_temperature;BME280_humidity;BME280_pressure;Samples;Min_cycle;Max_cycle;Signal;HPM_P1;HPM_P2
2023/01/27 00:01:05;;;;;;;25.30;14.73;;;;;;;3.38;100.00;161452.69;5031912;28;20052;-66
2023/01/27 00:03:31;;;;;;;23.30;15.77;;;;;;;3.38;100.00;161452.69;5033314;28;20036;-66
2023/01/27 00:05:59;;;;;;;26.25;15.20;;;;;;;3.37;100.00;161450.00;5031357;28;20095;-66
2023/01/27 00:08:25;;;;;;;32.55;18.50;;;;;;;3.37;100.00;161450.00;5032772;28;20503;-66
2023/01/27 00:13:25;;;;;;;23.30;14.45;;;;;;;3.37;100.00;161450.00;5031903;28;20041;-66
2023/01/27 00:13:35;;;;;;;53.40;19.95;;;;;;;3.36;100.00;161445.94;5032394;28;20045;-66
2023/01/27 00:16:01;;;;;;;29.17;18.00;;;;;;;3.36;100.00;161447.31;5031834;28;20096;-66
2023/01/27 00:18:26;;;;;;;35.70;16.67;;;;;;;3.39;100.00;161454.00;5032871;28;20017;-66
2023/01/27 00:26:20;;;;;;;21.92;15.00;;;;;;;3.35;100.00;161444.59;5011665;28;20609;-66
2023/01/27 00:28:46;;;;;;;25.63;15.57;;;;;;;3.35;100.00;161443.28;5012918;28;20026;-66
2023/01/27 00:34:07;;;;;;;21.63;15.60;;;;;;;3.35;100.00;161444.59;5013719;28;20037;-66
2023/01/27 00:36:34;;;;;;;28.42;16.10;;;;;;;3.32;100.00;161436.53;5019118;28;20156;-66
2023/01/27 00:38:59;;;;;;;25.15;14.68;;;;;;;3.33;100.00;161439.22;5033269;28;20377;-66
2023/01/27 00:41:27;;;;;;;34.22;16.55;;;;;;;3.36;100.00;161447.31;5031426;28;20044;-66
2023/01/27 00:43:53;;;;;;;28.27;16.70;;;;;;;3.36;100.00;161445.94;5032593;28;20027;-66
2023/01/27 00:46:20;;;;;;;31.48;15.73;;;;;;;3.32;100.00;161436.53;5031329;28;20041;-66
2023/01/27 00:48:46;;;;;;;30.10;17.20;;;;;;;3.35;100.00;161444.59;5032841;28;20404;-66
2023/01/27 00:51:12;;;;;;;27.60;16.55;;;;;;;3.38;100.00;161451.31;5030846;28;20041;-66
2023/01/27 00:53:37;;;;;;;31.70;17.65;;;;;;;3.39;100.00;161455.34;5032799;28;20040;-67
2023/01/27 00:56:03;;;;;;;33.42;17.45;;;;;;;3.38;100.00;161452.69;5031269;28;20041;-67
2023/01/27 00:58:29;;;;;;;27.63;16.30;;;;;;;3.38;100.00;161452.69;5032371;28;20032;-67
2023/01/27 01:00:58;;;;;;;26.52;18.25;;;;;;;3.37;100.00;161450.00;5030427;28;20033;-67
2023/01/27 01:03:24;;;;;;;33.17;16.90;;;;;;;3.37;100.00;161450.00;5032417;28;20044;-67
2023/01/27 01:05:49;;;;;;;25.55;16.05;;;;;;;3.33;100.00;161439.22;5030548;28;20133;-67
2023/01/27 01:08:15;;;;;;;29.10;19.08;;;;;;;3.33;100.00;161439.22;5032171;28;20021;-65
2023/01/27 01:10:40;;;;;;;20.40;16.10;;;;;;;3.31;100.00;161433.88;5031050;28;20034;-64
2023/01/27 01:13:06;;;;;;;27.27;16.15;;;;;;;3.27;100.00;161423.09;5032111;28;20029;-64
2023/01/27 01:15:36;;;;;;;26.70;17.63;;;;;;;3.25;100.00;161419.09;5031027;28;20033;-65
2023/01/27 01:18:03;;;;;;;33.78;16.90;;;;;;;3.26;100.00;161420.41;5032187;28;20030;-64
2023/01/27 01:20:28;;;;;;;31.25;18.65;;;;;;;3.22;100.00;161409.69;5030193;28;20124;-64
2023/01/27 01:22:54;;;;;;;28.02;17.27;;;;;;;3.15;100.00;161393.59;5032298;28;20036;-64
2023/01/27 01:25:19;;;;;;;29.23;18.52;;;;;;;3.16;100.00;161396.22;5030639;28;20091;-65
2023/01/27 01:27:44;;;;;;;27.70;18.45;;;;;;;3.11;100.00;161382.81;5031843;28;20021;-65
2023/01/27 01:30:10;;;;;;;32.63;17.80;;;;;;;3.07;100.00;161372.09;5030466;28;20442;-65
2023/01/27 01:32:36;;;;;;;27.80;19.77;;;;;;;3.02;100.00;161358.63;5031841;28;20029;-65
2023/01/27 01:35:01;;;;;;;26.70;18.75;;;;;;;3.05;100.00;161366.72;5030122;28;20029;-65
2023/01/27 01:37:26;;;;;;;35.60;21.25;;;;;;;2.94;100.00;161337.19;5031542;28;20017;-65
2023/01/27 01:39:52;;;;;;;32.42;19.45;;;;;;;3.04;100.00;161364.00;5032062;28;20036;-65
2023/01/27 01:42:17;;;;;;;28.48;19.40;;;;;;;3.02;100.00;161358.63;5029790;28;20037;-65
2023/01/27 01:44:43;;;;;;;27.45;19.40;;;;;;;3.00;100.00;161353.28;5031827;28;20028;-65
2023/01/27 01:47:15;;;;;;;30.10;20.88;;;;;;;2.99;100.00;161350.59;5030100;28;20053;-65
2023/01/27 01:49:41;;;;;;;28.92;19.75;;;;;;;3.01;100.00;161355.97;5031404;28;20625;-65
2023/01/27 01:52:12;;;;;;;28.95;22.35;;;;;;;2.98;100.00;161349.22;5030112;28;20088;-65
2023/01/27 01:54:47;;;;;;;29.33;20.48;;;;;;;2.95;100.00;161339.81;5031544;28;20067;-65
2023/01/27 01:57:28;;;;;;;36.85;21.20;;;;;;;2.97;100.00;161346.59;5029743;28;20033;-66
2023/01/27 02:00:01;;;;;;;27.85;19.83;;;;;;;2.94;100.00;161337.19;5031651;28;20063;-66
2023/01/27 02:02:26;;;;;;;31.33;20.73;;;;;;;2.94;100.00;161337.19;5010242;28;20497;-66
2023/01/27 02:04:58;;;;;;;27.77;19.95;;;;;;;2.94;100.00;161337.19;5011099;28;20038;-66
2023/01/27 02:07:29;;;;;;;32.47;19.17;;;;;;;2.95;100.00;161341.19;5029479;28;20045;-65
2023/01/27 02:09:56;;;;;;;35.30;20.98;;;;;;;2.94;100.00;161338.50;5031449;28;20476;-65
2023/01/27 02:12:21;;;;;;;30.67;20.73;;;;;;;2.91;100.00;161329.09;5028886;28;20083;-65
2023/01/27 02:14:47;;;;;;;34.58;22.60;;;;;;;2.89;100.00;161325.09;5031272;28;20029;-65
2023/01/27 02:17:13;;;;;;;29.55;18.52;;;;;;;2.88;100.00;161321.03;5029399;28;20135;-65
2023/01/27 02:19:43;;;;;;;30.95;21.13;;;;;;;2.89;100.00;161323.72;5031045;28;20412;-65
2023/01/27 02:22:12;;;;;;;38.92;19.80;;;;;;;2.88;100.00;161321.03;5029872;28;20045;-66
2023/01/27 02:24:45;;;;;;;28.90;19.02;;;;;;;2.85;100.00;161315.69;5030801;28;20021;-66
2023/01/27 02:27:13;;;;;;;31.77;21.30;;;;;;;2.84;100.00;161311.63;5029302;28;20041;-66
2023/01/27 02:29:38;;;;;;;26.77;19.58;;;;;;;2.83;100.00;161310.31;5031469;28;20048;-66
2023/01/27 02:32:04;;;;;;;28.67;21.88;;;;;;;2.87;100.00;161318.38;5029390;28;20049;-66
2023/01/27 02:34:35;;;;;;;34.13;20.85;;;;;;;2.84;100.00;161313.00;5030492;28;20064;-65
2023/01/27 02:37:04;;;;;;;35.63;22.75;;;;;;;2.85;100.00;161315.69;5029704;28;20463;-65
2023/01/27 02:39:39;;;;;;;37.58;20.83;;;;;;;2.83;100.00;161310.31;5030631;28;20057;-67
2023/01/27 02:42:08;;;;;;;33.67;21.20;;;;;;;2.80;100.00;161302.22;5029202;28;20076;-67
2023/01/27 02:44:33;;;;;;;33.67;21.98;;;;;;;2.75;100.00;161288.81;5030431;28;20037;-65
2023/01/27 02:46:58;;;;;;;37.42;23.58;;;;;;;2.80;100.00;161302.22;5029497;28;20043;-65
2023/01/27 02:49:24;;;;;;;35.13;22.50;;;;;;;2.82;100.00;161307.59;5030015;28;20060;-65
2023/01/27 02:51:49;;;;;;;34.58;23.00;;;;;;;2.85;100.00;161314.31;5029157;28;20074;-66
2023/01/27 02:54:14;;;;;;;27.55;20.23;;;;;;;2.84;100.00;161313.00;5030441;28;20018;-67
2023/01/27 02:56:40;;;;;;;37.33;19.65;;;;;;;2.91;100.00;161329.09;5029106;28;20386;-66
2023/01/27 02:59:05;;;;;;;26.95;20.95;;;;;;;2.88;100.00;161321.03;5030565;28;20084;-66
2023/01/27 03:01:31;;;;;;;33.08;21.95;;;;;;;2.91;100.00;161329.09;5029194;28;20046;-66
2023/01/27 03:03:57;;;;;;;29.25;20.30;;;;;;;2.91;100.00;161329.09;5030421;28;20049;-66
2023/01/27 03:06:22;;;;;;;27.92;22.13;;;;;;;2.93;100.00;161334.50;5028706;28;20049;-66
2023/01/27 03:08:48;;;;;;;27.58;18.88;;;;;;;2.91;100.00;161329.09;5030621;28;20030;-67
2023/01/27 03:11:13;;;;;;;32.78;21.98;;;;;;;2.88;100.00;161322.41;5028309;28;20041;-66
2023/01/27 03:13:38;;;;;;;26.67;19.58;;;;;;;2.91;100.00;161329.09;5030480;28;20037;-67
2023/01/27 03:18:52;;;;;;;21.67;17.35;;;;;;;2.98;100.00;161347.91;5030474;28;20396;-66
2023/01/27 03:21:18;;;;;;;25.30;18.90;;;;;;;2.97;100.00;161345.22;5029124;28;20042;-66
2023/01/27 03:23:50;;;;;;;22.63;17.60;;;;;;;2.99;100.00;161350.59;5032169;28;20029;-66
2023/01/27 03:26:16;;;;;;;22.33;18.27;;;;;;;3.05;100.00;161365.38;5032564;28;20037;-67
2023/01/27 03:28:41;;;;;;;21.65;16.13;;;;;;;3.03;100.00;161361.31;5034180;28;20021;-67
2023/01/27 03:31:18;;;;;;;23.92;19.00;;;;;;;3.02;100.00;161358.63;5031641;28;20071;-67
2023/01/27 03:33:43;;;;;;;20.77;16.48;;;;;;;3.04;100.00;161362.69;5034154;28;20104;-67
2023/01/27 03:47:04;;;;;;;24.52;18.25;;;;;;;3.06;100.00;161368.03;5032666;28;20080;-67
2023/01/27 03:49:30;;;;;;;20.17;16.70;;;;;;;3.05;100.00;161366.72;5033300;28;20022;-67
2023/01/27 03:51:55;;;;;;;22.10;15.90;;;;;;;3.03;100.00;161361.31;5032667;28;20492;-65
2023/01/27 03:54:20;;;;;;;23.42;18.05;;;;;;;3.03;100.00;161361.31;5033605;28;20029;-65
2023/01/27 03:56:46;;;;;;;19.23;16.38;;;;;;;3.02;100.00;161358.63;5032159;28;20421;-65
2023/01/27 03:59:12;;;;;;;26.52;17.17;;;;;;;3.01;100.00;161357.31;5034105;28;20013;-63
2023/01/27 04:01:38;;;;;;;19.65;17.58;;;;;;;2.96;100.00;161343.88;5032037;28;20124;-64
2023/01/27 04:06:54;;;;;;;21.58;15.77;;;;;;;2.99;100.00;161350.59;5032221;28;20463;-65
2023/01/27 04:09:30;;;;;;;21.08;18.02;;;;;;;2.90;100.00;161326.41;5033267;28;20116;-65
2023/01/27 04:11:58;;;;;;;24.10;18.92;;;;;;;2.99;100.00;161350.59;5031884;28;20571;-64
2023/01/27 04:14:38;;;;;;;21.15;17.77;;;;;;;2.97;100.00;161345.22;5033573;28;20040;-64
2023/01/27 04:17:04;;;;;;;20.67;18.42;;;;;;;2.99;100.00;161350.59;5032016;28;20087;-64
2023/01/27 04:19:30;;;;;;;21.90;18.58;;;;;;;2.98;100.00;161349.22;5032995;28;20025;-64
2023/01/27 04:21:59;;;;;;;22.17;19.65;;;;;;;3.00;100.00;161353.28;5031847;28;20550;-66
2023/01/27 04:24:25;;;;;;;18.88;15.50;;;;;;;2.97;100.00;161346.59;5033124;28;20100;-66
2023/01/27 04:26:53;;;;;;;19.95;14.70;;;;;;;2.96;100.00;161342.50;5031591;28;20080;-64
2023/01/27 04:29:20;;;;;;;21.73;17.55;;;;;;;2.95;100.00;161341.19;5033167;28;20037;-68
2023/01/27 04:31:45;;;;;;;19.60;15.40;;;;;;;2.93;100.00;161334.50;5031753;28;20041;-67
2023/01/27 04:34:11;;;;;;;19.33;15.07;;;;;;;2.92;100.00;161333.13;5032737;28;20033;-67
2023/01/27 04:36:37;;;;;;;21.25;16.65;;;;;;;2.90;100.00;161326.41;5031514;28;20052;-67
2023/01/27 04:39:03;;;;;;;17.38;14.70;;;;;;;2.84;100.00;161313.00;5033168;28;20104;-66
2023/01/27 04:41:28;;;;;;;19.10;13.68;;;;;;;2.82;100.00;161307.59;5030944;28;20042;-65
2023/01/27 04:43:53;;;;;;;20.25;14.77;;;;;;;2.74;100.00;161286.13;5032811;28;20105;-65
2023/01/27 04:46:19;;;;;;;23.52;16.33;;;;;;;2.81;100.00;161303.59;5031302;28;20041;-65
2023/01/27 04:48:44;;;;;;;22.55;17.98;;;;;;;2.82;100.00;161306.28;5031291;28;20033;-65
2023/01/27 04:51:09;;;;;;;19.13;15.57;;;;;;;2.82;100.00;161307.59;5031149;28;20107;-65
2023/01/27 04:53:35;;;;;;;19.05;14.95;;;;;;;2.82;100.00;161307.59;5032815;28;20025;-65
2023/01/27 04:56:04;;;;;;;19.17;14.93;;;;;;;2.82;100.00;161307.59;5031193;28;20125;-64
2023/01/27 04:58:30;;;;;;;17.50;13.05;;;;;;;2.71;100.00;161278.09;5032397;28;20033;-65
2023/01/27 05:00:55;;;;;;;17.23;13.85;;;;;;;2.73;100.00;161283.44;5031213;28;20037;-65
2023/01/27 05:03:21;;;;;;;16.02;13.65;;;;;;;2.72;100.00;161280.75;5031763;28;20025;-65
2023/01/27 05:05:46;;;;;;;16.63;14.88;;;;;;;2.70;100.00;161275.41;5030947;28;20459;-64
2023/01/27 05:08:11;;;;;;;18.13;13.18;;;;;;;2.50;100.00;161223.03;5032547;28;20022;-64
2023/01/27 05:10:37;;;;;;;18.05;13.18;;;;;;;2.56;100.00;161237.81;5030621;28;20041;-67
2023/01/27 05:13:02;;;;;;;14.55;13.05;;;;;;;2.50;100.00;161224.34;5032116;28;20040;-66
2023/01/27 05:15:29;;;;;;;15.88;11.73;;;;;;;2.48;100.00;161217.66;5030615;28;20116;-65
2023/01/27 05:17:54;;;;;;;15.35;11.32;;;;;;;2.49;100.00;161220.34;5031183;28;20026;-65
2023/01/27 05:20:20;;;;;;;13.02;11.77;;;;;;;2.50;100.00;161224.34;5030643;28;20034;-65
2023/01/27 05:22:45;;;;;;;18.02;12.00;;;;;;;2.53;100.00;161232.44;5031748;28;20055;-65
2023/01/27 05:25:11;;;;;;;18.48;12.13;;;;;;;2.57;100.00;161240.50;5030389;28;20022;-65
2023/01/27 05:27:36;;;;;;;17.17;11.13;;;;;;;2.58;100.00;161243.16;5031663;28;20035;-65
2023/01/27 05:30:02;;;;;;;16.05;11.55;;;;;;;2.60;100.00;161248.53;5030134;28;20040;-64
2023/01/27 05:32:27;;;;;;;11.90;10.70;;;;;;;2.63;100.00;161256.59;5011526;28;20026;-65
2023/01/27 05:34:52;;;;;;;10.48;8.80;;;;;;;2.66;100.00;161264.63;5012496;28;20033;-65
2023/01/27 05:37:18;;;;;;;13.40;10.10;;;;;;;2.71;100.00;161278.09;5010722;28;20038;-65
2023/01/27 05:39:43;;;;;;;10.65;9.52;;;;;;;2.69;100.00;161272.72;5010913;28;20076;-63
2023/01/27 05:42:09;;;;;;;13.73;10.48;;;;;;;2.69;100.00;161272.72;5010321;28;20557;-63
2023/01/27 05:44:34;;;;;;;14.65;10.88;;;;;;;2.47;100.00;161216.31;5011402;28;20029;-63
2023/01/27 05:47:00;;;;;;;13.93;10.40;;;;;;;2.59;100.00;161245.84;5026126;28;20049;-63
2023/01/27 05:49:25;;;;;;;11.23;9.57;;;;;;;2.50;100.00;161223.03;5031485;28;20029;-63
2023/01/27 05:51:51;;;;;;;11.13;10.07;;;;;;;2.45;100.00;161210.94;5030439;28;20103;-63
2023/01/27 05:54:16;;;;;;;14.52;11.48;;;;;;;2.39;100.00;161194.84;5031028;28;20385;-64
2023/01/27 05:56:41;;;;;;;13.10;9.80;;;;;;;2.34;100.00;161181.44;5030332;28;20033;-64
2023/01/27 05:59:09;;;;;;;13.02;10.50;;;;;;;2.30;100.00;161172.03;5031604;28;20382;-64
2023/01/27 06:01:36;;;;;;;11.70;10.45;;;;;;;2.21;100.00;161147.88;5029477;28;20041;-64
2023/01/27 06:04:01;;;;;;;13.35;9.90;;;;;;;2.34;100.00;161181.44;5031714;28;20110;-63
2023/01/27 06:06:29;;;;;;;11.85;10.32;;;;;;;2.33;100.00;161178.75;5029763;28;20046;-63
2023/01/27 06:08:55;;;;;;;12.00;10.60;;;;;;;2.33;100.00;161178.75;5031182;28;20029;-63
2023/01/27 06:11:21;;;;;;;15.88;10.35;;;;;;;2.35;100.00;161184.06;5029764;28;20554;-64
2023/01/27 06:13:47;;;;;;;12.60;10.00;;;;;;;2.29;100.00;161167.97;5031695;28;20022;-64
2023/01/27 06:16:19;;;;;;;13.85;10.23;;;;;;;2.30;100.00;161170.66;5029660;28;20041;-64
2023/01/27 06:18:45;;;;;;;11.18;9.35;;;;;;;2.29;100.00;161167.97;5031230;28;20534;-63
2023/01/27 06:21:12;;;;;;;14.85;10.77;;;;;;;2.31;100.00;161173.34;5029788;28;20125;-63
2023/01/27 06:23:38;;;;;;;13.27;11.63;;;;;;;2.37;100.00;161190.84;5030461;28;20026;-63
2023/01/27 06:26:15;;;;;;;12.05;9.38;;;;;;;2.35;100.00;161185.44;5029629;28;20048;-63
2023/01/27 06:28:41;;;;;;;10.98;9.48;;;;;;;2.35;100.00;161185.44;5030976;28;20037;-65
2023/01/27 06:31:09;;;;;;;10.05;8.90;;;;;;;2.42;100.00;161202.88;5029395;28;20056;-64
2023/01/27 06:33:35;;;;;;;10.45;9.05;;;;;;;2.45;100.00;161210.94;5030742;28;20028;-64
2023/01/27 06:36:03;;;;;;;13.13;9.00;;;;;;;2.40;100.00;161197.53;5029698;28;20045;-64
2023/01/27 06:38:28;;;;;;;14.90;9.63;;;;;;;2.36;100.00;161186.75;5030397;28;20025;-64
2023/01/27 06:40:53;;;;;;;8.40;7.65;;;;;;;2.35;100.00;161185.44;5029309;28;20048;-64
2023/01/27 06:43:19;;;;;;;12.05;9.15;;;;;;;2.44;100.00;161208.25;5030627;28;20434;-65
2023/01/27 06:45:44;;;;;;;17.52;13.20;;;;;;;2.49;100.00;161221.72;5028901;28;20049;-65
2023/01/27 06:48:09;;;;;;;11.57;8.40;;;;;;;2.52;100.00;161229.75;5030807;28;20037;-61
2023/01/27 06:50:36;;;;;;;8.07;7.35;;;;;;;2.56;100.00;161239.13;5029275;28;20041;-61
2023/01/27 06:53:03;;;;;;;8.23;7.53;;;;;;;2.58;100.00;161243.16;5030533;28;20132;-61
2023/01/27 06:55:29;;;;;;;14.65;9.35;;;;;;;2.62;100.00;161255.25;5029095;28;20103;-60
2023/01/27 06:57:54;;;;;;;12.88;9.77;;;;;;;2.68;100.00;161271.34;5031412;28;20465;-61
2023/01/27 07:00:20;;;;;;;9.50;8.45;;;;;;;2.73;100.00;161283.44;5033139;28;21299;-60
2023/01/27 07:02:45;;;;;;;12.80;10.27;;;;;;;2.63;100.00;161256.59;5034927;28;20064;-61
2023/01/27 07:05:12;;;;;;;10.13;8.43;;;;;;;2.75;100.00;161288.81;5033158;28;20056;-60
2023/01/27 07:07:37;;;;;;;8.95;7.15;;;;;;;2.71;100.00;161278.09;5034572;28;20388;-61
2023/01/27 07:10:03;;;;;;;13.57;9.43;;;;;;;2.79;100.00;161298.22;5033040;28;20022;-61
2023/01/27 07:12:30;;;;;;;10.50;9.15;;;;;;;2.82;100.00;161306.28;5034438;28;20025;-61
2023/01/27 07:14:55;;;;;;;8.93;8.20;;;;;;;2.81;100.00;161304.91;5034912;28;20068;-61
2023/01/27 07:17:20;;;;;;;9.95;8.18;;;;;;;2.81;100.00;161303.59;5032435;28;20492;-61
2023/01/27 07:19:46;;;;;;;9.27;8.35;;;;;;;2.82;100.00;161307.59;5034559;28;20389;-61
2023/01/27 07:22:11;;;;;;;10.57;9.02;;;;;;;2.84;100.00;161313.00;5032982;28;20095;-61
2023/01/27 07:24:36;;;;;;;18.33;9.77;;;;;;;2.81;100.00;161304.91;5033816;28;20076;-61
2023/01/27 07:27:01;;;;;;;12.38;9.40;;;;;;;2.83;100.00;161310.31;5032985;28;20044;-61
2023/01/27 07:29:27;;;;;;;11.93;8.88;;;;;;;2.81;100.00;161304.91;5034089;28;20021;-61
2023/01/27 07:31:52;;;;;;;12.38;9.27;;;;;;;2.84;100.00;161313.00;5032446;28;20471;-61
2023/01/27 07:34:17;;;;;;;12.30;10.10;;;;;;;2.84;100.00;161311.63;5034122;28;20022;-61
2023/01/27 07:36:43;;;;;;;10.07;8.40;;;;;;;2.87;100.00;161318.38;5032816;28;20034;-60
2023/01/27 07:39:08;;;;;;;8.70;7.95;;;;;;;2.84;100.00;161313.00;5034024;28;20025;-61
2023/01/27 07:41:34;;;;;;;15.35;10.02;;;;;;;2.85;100.00;161314.31;5032473;28;20060;-61
2023/01/27 07:43:59;;;;;;;11.00;8.93;;;;;;;2.82;100.00;161307.59;5034068;28;20039;-61
2023/01/27 07:46:24;;;;;;;18.35;10.20;;;;;;;2.82;100.00;161307.59;5028437;28;20054;-61
2023/01/27 07:48:50;;;;;;;11.27;10.13;;;;;;;2.83;100.00;161310.31;5052008;28;20025;-61
2023/01/27 07:51:15;;;;;;;9.07;8.18;;;;;;;2.83;100.00;161310.31;5052271;28;20045;-60
2023/01/27 07:53:41;;;;;;;12.77;9.75;;;;;;;2.76;100.00;161291.50;5035326;28;20067;-60
2023/01/27 07:56:12;;;;;;;11.02;9.50;;;;;;;2.82;100.00;161307.59;5023470;28;20123;-60
2023/01/27 07:58:38;;;;;;;11.98;8.93;;;;;;;2.82;100.00;161307.59;5014109;28;20522;-60
2023/01/27 08:01:08;;;;;;;13.38;10.50;;;;;;;2.80;100.00;161302.22;5012408;28;20052;-60
2023/01/27 08:03:35;;;;;;;9.98;8.93;;;;;;;2.83;100.00;161308.97;5012540;28;20437;-61
2023/01/27 08:06:08;;;;;;;10.68;9.63;;;;;;;2.83;100.00;161310.31;5012203;28;20429;-61
2023/01/27 08:08:34;;;;;;;8.70;7.85;;;;;;;2.82;100.00;161307.59;5012773;28;20052;-61
2023/01/27 08:11:02;;;;;;;9.35;8.50;;;;;;;2.83;100.00;161308.97;5012297;28;20042;-61
2023/01/27 08:13:27;;;;;;;8.98;7.95;;;;;;;2.82;100.00;161307.59;5013512;28;20021;-61
2023/01/27 08:16:00;;;;;;;9.63;8.70;;;;;;;2.84;100.00;161311.63;5012002;28;20096;-60
2023/01/27 08:18:27;;;;;;;9.60;8.70;;;;;;;2.84;100.00;161313.00;5013293;28;20029;-61
2023/01/27 08:20:53;;;;;;;10.77;9.68;;;;;;;2.85;100.00;161315.69;5012206;28;20037;-61
2023/01/27 08:23:21;;;;;;;10.07;9.07;;;;;;;2.83;100.00;161310.31;5012985;28;20033;-61
2023/01/27 08:25:54;;;;;;;10.15;7.10;;;;;;;2.84;100.00;161311.63;5012406;28;20037;-61
2023/01/27 08:28:21;;;;;;;10.35;9.30;;;;;;;2.90;100.00;161326.41;5013131;28;20034;-60
2023/01/27 08:30:47;;;;;;;9.25;8.35;;;;;;;2.92;100.00;161331.78;5011599;28;20034;-61
2023/01/27 08:33:12;;;;;;;9.10;8.20;;;;;;;2.93;100.00;161334.50;5013712;28;20092;-61
2023/01/27 08:35:41;;;;;;;11.10;9.60;;;;;;;2.96;100.00;161342.50;5011995;28;20034;-60
2023/01/27 08:38:06;;;;;;;;;;;;;;;2.97;100.00;161345.22;5013617;28;20072;-61
2023/01/27 08:40:32;;;;;;;10.88;9.50;;;;;;;2.95;100.00;161339.81;5011736;28;20271;-60
2023/01/27 08:42:57;;;;;;;10.32;9.32;;;;;;;3.00;100.00;161354.59;5013332;28;20034;-61
2023/01/27 08:45:22;;;;;;;10.05;9.13;;;;;;;3.04;100.00;161364.00;5011054;28;20041;-60
2023/01/27 08:47:48;;;;;;;9.75;8.77;;;;;;;3.05;100.00;161366.72;5013287;28;20397;-61
2023/01/27 08:50:13;;;;;;;10.13;8.95;;;;;;;3.05;100.00;161366.72;5011626;28;20091;-60
2023/01/27 08:52:39;;;;;;;10.95;9.90;;;;;;;3.07;100.00;161372.09;5012724;28;20029;-61
2023/01/27 08:55:05;;;;;;;13.45;11.30;;;;;;;3.01;100.00;161355.97;5011483;28;20026;-60
2023/01/27 08:57:31;;;;;;;11.15;9.60;;;;;;;3.07;100.00;161372.09;5013062;28;20436;-61
2023/01/27 08:59:57;;;;;;;10.50;9.50;;;;;;;3.15;100.00;161392.22;5010560;28;20029;-60
2023/01/27 09:02:23;;;;;;;14.60;9.98;;;;;;;3.17;100.00;161398.91;5018674;28;20095;-60
2023/01/27 09:04:48;;;;;;;12.80;11.50;;;;;;;3.17;100.00;161398.91;5012367;28;20054;-60
2023/01/27 09:07:14;;;;;;;12.85;10.85;;;;;;;3.16;100.00;161396.22;5010564;28;20053;-60
2023/01/27 09:09:39;;;;;;;12.00;9.77;;;;;;;3.14;100.00;161390.88;5012609;28;20045;-60
2023/01/27 09:12:05;;;;;;;10.50;9.50;;;;;;;3.20;100.00;161405.69;5011353;28;20037;-60
2023/01/27 09:14:30;;;;;;;11.57;10.45;;;;;;;3.33;100.00;161439.22;5012032;28;20030;-60
2023/01/27 09:16:55;;;;;;;17.40;10.85;;;;;;;3.32;100.00;161436.53;5011261;28;20038;-60
2023/01/27 09:19:21;;;;;;;24.55;16.92;;;;;;;3.41;100.00;161460.72;5012498;28;20017;-61
2023/01/27 09:21:46;;;;;;;17.02;11.88;;;;;;;3.49;100.00;161482.22;5010302;28;20069;-60
2023/01/27 09:24:16;;;;;;;13.95;12.15;;;;;;;3.54;100.00;161493.00;5012357;28;20022;-61
2023/01/27 09:26:42;;;;;;;10.45;9.05;;;;;;;3.49;100.00;161482.22;5011282;28;20483;-61
2023/01/27 09:29:07;;;;;;;9.82;8.25;;;;;;;3.48;100.00;161479.53;5011971;28;20060;-61
2023/01/27 09:31:32;;;;;;;9.95;8.57;;;;;;;3.52;100.00;161488.94;5010846;28;20527;-60
2023/01/27 09:33:58;;;;;;;8.50;7.63;;;;;;;3.86;100.00;161577.63;5012421;28;20044;-61
2023/01/27 09:36:23;;;;;;;9.70;8.70;;;;;;;4.17;100.00;161658.22;5010053;28;20096;-61
2023/01/27 09:38:58;;;;;;;10.10;9.20;;;;;;;4.38;100.00;161712.03;5012605;28;20350;-60
2023/01/27 09:41:54;;;;;;;9.85;7.85;;;;;;;4.13;100.00;161648.81;5010543;28;20056;-60
2023/01/27 09:44:40;;;;;;;8.38;7.57;;;;;;;4.25;100.00;161678.41;5011539;28;20065;-60
2023/01/27 09:47:40;;;;;;;9.25;8.45;;;;;;;4.18;100.00;161659.59;5010646;28;20511;-60
2023/01/27 09:50:38;;;;;;;10.35;8.52;;;;;;;4.11;100.00;161643.47;5010457;28;20021;-60
2023/01/27 09:53:44;;;;;;;8.20;7.20;;;;;;;3.97;100.00;161605.84;5011979;28;20472;-61
2023/01/27 09:56:38;;;;;;;9.27;8.40;;;;;;;3.97;100.00;161605.84;5010448;28;20400;-60
2023/01/27 09:59:37;;;;;;;9.85;8.85;;;;;;;4.02;100.00;161617.97;5011586;28;20024;-60
2023/01/27 10:02:40;;;;;;;9.13;7.95;;;;;;;4.08;100.00;161635.41;5010205;28;20042;-60
2023/01/27 10:05:43;;;;;;;9.25;8.00;;;;;;;4.01;100.00;161616.59;5010353;28;20095;-60
2023/01/27 10:08:33;;;;;;;8.15;7.32;;;;;;;3.98;100.00;161608.53;5011554;28;20104;-61
2023/01/27 10:11:14;;;;;;;12.27;7.68;;;;;;;4.09;100.00;161638.09;5010357;28;20050;-60
2023/01/27 10:13:48;;;;;;;10.60;8.68;;;;;;;4.13;100.00;161648.81;5011354;28;20070;-60
2023/01/27 10:16:58;;;;;;;8.40;7.60;;;;;;;4.04;100.00;161624.66;5010131;28;20133;-60
2023/01/27 10:19:40;;;;;;;8.40;6.60;;;;;;;4.09;100.00;161638.09;5002768;28;20366;-60
2023/01/27 10:22:32;;;;;;;8.50;6.90;;;;;;;4.26;100.00;161682.44;5009886;28;20045;-60
2023/01/27 10:25:32;;;;;;;7.30;6.60;;;;;;;4.37;100.00;161710.66;5009841;28;20038;-59
2023/01/27 10:28:09;;;;;;;7.60;6.93;;;;;;;4.19;100.00;161662.31;5011081;28;20112;-60
2023/01/27 10:30:37;;;;;;;11.43;7.68;;;;;;;4.27;100.00;161683.81;5009964;28;20041;-60
2023/01/27 10:33:06;;;;;;;8.32;7.00;;;;;;;4.37;100.00;161709.34;5011091;28;20133;-61
2023/01/27 10:35:51;;;;;;;9.32;8.40;;;;;;;4.33;100.00;161699.94;5009416;28;20037;-60
2023/01/27 10:38:39;;;;;;;10.10;7.20;;;;;;;4.28;100.00;161686.50;5011245;28;20057;-61
2023/01/27 10:41:17;;;;;;;10.02;7.60;;;;;;;4.23;100.00;161674.41;5009857;28;20042;-61
2023/01/27 10:44:08;;;;;;;8.02;7.32;;;;;;;4.43;100.00;161725.47;5010839;28;20030;-61
2023/01/27 10:47:04;;;;;;;8.90;7.07;;;;;;;4.55;100.00;161756.38;5009433;28;20053;-60
2023/01/27 10:49:46;;;;;;;7.50;6.80;;;;;;;4.53;100.00;161752.38;5010898;28;20022;-61
2023/01/27 10:52:19;;;;;;;7.32;6.72;;;;;;;4.53;100.00;161751.00;5010079;28;20038;-60
2023/01/27 10:54:55;;;;;;;8.60;7.82;;;;;;;4.65;100.00;161781.91;5011007;28;20105;-61
2023/01/27 10:57:36;;;;;;;8.75;6.57;;;;;;;4.64;100.00;161780.59;5009114;28;20042;-61
2023/01/27 11:00:11;;;;;;;7.43;6.63;;;;;;;4.68;100.00;161791.34;5009610;28;20065;-60
2023/01/27 11:02:46;;;;;;;7.25;6.65;;;;;;;4.80;100.00;161820.94;5010574;28;20477;-61
2023/01/27 11:05:19;;;;;;;10.38;8.05;;;;;;;4.83;100.00;161828.97;5008944;28;20056;-60
2023/01/27 11:07:56;;;;;;;7.53;6.82;;;;;;;4.87;100.00;161839.78;5010728;28;20469;-61
2023/01/27 11:10:27;;;;;;;8.27;7.47;;;;;;;4.82;100.00;161827.66;5010848;28;20045;-60
2023/01/27 11:12:55;;;;;;;7.72;7.03;;;;;;;4.86;100.00;161837.06;5030227;28;20028;-61
2023/01/27 11:15:31;;;;;;;7.90;6.10;;;;;;;4.84;100.00;161831.69;5028841;28;20045;-61
2023/01/27 11:18:11;;;;;;;8.30;7.47;;;;;;;4.66;100.00;161785.94;5016561;28;20381;-61
2023/01/27 11:20:47;;;;;;;7.72;6.82;;;;;;;4.65;100.00;161783.28;5007812;28;20065;-61
2023/01/27 11:23:17;;;;;;;6.88;6.22;;;;;;;4.49;100.00;161740.25;5010953;28;20056;-61
2023/01/27 11:26:11;;;;;;;9.35;6.63;;;;;;;4.51;100.00;161746.97;5015488;28;20034;-61
2023/01/27 11:28:49;;;;;;;9.77;7.35;;;;;;;4.47;100.00;161736.19;5029962;28;20021;-61
2023/01/27 11:31:28;;;;;;;8.20;7.40;;;;;;;4.52;100.00;161748.31;5028847;28;20071;-61
2023/01/27 11:33:57;;;;;;;;;;;;;;;4.47;100.00;161736.19;5030651;28;20032;-61
2023/01/27 11:36:24;;;;;;;8.30;7.47;;;;;;;4.44;100.00;161729.47;5027865;28;19916;-61
2023/01/27 11:38:49;;;;;;;8.63;7.82;;;;;;;4.48;100.00;161737.56;5030234;28;20052;-62
2023/01/27 11:41:15;;;;;;;17.70;11.23;;;;;;;4.47;100.00;161736.19;5027672;28;20049;-62
2023/01/27 11:43:40;;;;;;;8.27;7.47;;;;;;;4.44;100.00;161729.47;5029902;28;20022;-62
2023/01/27 11:46:21;;;;;;;8.32;7.47;;;;;;;4.47;100.00;161734.88;5032587;28;20038;-62
2023/01/27 11:48:52;;;;;;;7.22;6.53;;;;;;;4.48;100.00;161738.88;5014354;28;20061;-63